Polar Bear — ZMA2072 — position and weather

sailwx.info

Track history (hours):
 
Tides and Currents Weather Stations Pressure Air Temp Water Temp Dewpoint Dewpoint Depression Visibility Wind Speed Wind Dir Waves Ship Positions

Polar Bear

Last reported at 2014-Jul-25 13:33 UTC. Time now 2014-Jul-28 22:41 UTC.
Position N 50°52' W 127°50'.

Length 28 m; draft 2.3 m.

Type: Pleasure craft. MMSI: 512172000.

Date/timePositionNaut miles runAvg speedWind from/ knotsBaromVisibWave heightAir tempDewpointWater temp
2014-Jul-25 13:33N 50°52' W 127°50'9 9.4
2014-Jul-25 12:33N 50°49' W 127°36'1 1.3
2014-Jul-25 11:32N 50°49' W 127°34'0 0.0
2014-Jul-25 10:32N 50°49' W 127°34'0 0.0
2014-Jul-25 09:32N 50°49' W 127°34'0 0.0
2014-Jul-25 08:32N 50°49' W 127°34'0 0.0
2014-Jul-25 07:32N 50°49' W 127°34'0 0.0
2014-Jul-25 06:32N 50°49' W 127°34'0 0.0
2014-Jul-25 05:32N 50°49' W 127°34'0 0.0
2014-Jul-25 04:32N 50°49' W 127°34'2 1.2
2014-Jul-25 02:33N 50°48' W 127°31'4 1.9
2014-Jul-25 00:16N 50°44' W 127°29'0 0.0
2014-Jul-24 23:22N 50°44' W 127°29'0 0.2
2014-Jul-24 22:32N 50°43' W 127°29'4 4.3
2014-Jul-24 21:33N 50°45' W 127°23'9 8.5
2014-Jul-24 20:32N 50°39' W 127°12'7 7.2
2014-Jul-24 19:33N 50°37' W 127°02'7 7.1
2014-Jul-24 18:32N 50°34' W 126°52'59 3.2
2014-Jul-24 00:23N 50°16' W 125°24'  
2014-Jul-21 05:09N 49°60' W 125°12'6 9.5
2014-Jul-21 04:32N 49°55' W 125°06'12 9.9
2014-Jul-21 03:19N 49°46' W 124°54'7 7.9
2014-Jul-21 02:27N 49°39' W 124°53'2 0.4
2014-Jul-20 20:31N 49°40' W 124°56'0 0.0
2014-Jul-20 19:19N 49°40' W 124°56'0 0.0
2014-Jul-20 18:19N 49°40' W 124°56'2 1.0
2014-Jul-20 16:33N 49°39' W 124°54'3 0.3
2014-Jul-20 04:25N 49°36' W 124°50'4 0.4
2014-Jul-19 18:30N 49°32' W 124°50'8 8.6
2014-Jul-19 17:32N 49°29' W 124°39'3 0.5
2014-Jul-19 12:04N 49°31' W 124°38'0 0.0
2014-Jul-19 09:16N 49°31' W 124°38'0 0.0
2014-Jul-19 08:28N 49°31' W 124°38'0 0.0
2014-Jul-19 02:10N 49°31' W 124°38'0 0.0
2014-Jul-19 01:10N 49°31' W 124°38'2 2.7
2014-Jul-19 00:33N 49°31' W 124°35'9 8.6
2014-Jul-18 23:33N 49°31' W 124°22'9 8.8
2014-Jul-18 22:33N 49°29' W 124°10'7 6.9
2014-Jul-18 21:33N 49°30' W 123°59'0 0.2
2014-Jul-18 20:33N 49°30' W 123°59'0 0.0
2014-Jul-18 19:33N 49°30' W 123°59'0 0.0
2014-Jul-18 18:15N 49°30' W 123°59'0 0.0
2014-Jul-18 17:33N 49°30' W 123°59'0 0.0
2014-Jul-18 16:27N 49°30' W 123°59'0 0.0
2014-Jul-18 15:33N 49°30' W 123°59'0 0.0
2014-Jul-18 14:33N 49°30' W 123°59'0 0.0
2014-Jul-18 13:33N 49°30' W 123°59'0 0.0
2014-Jul-18 12:33N 49°30' W 123°59'0 0.0
2014-Jul-18 11:33N 49°30' W 123°59'0 0.0
2014-Jul-18 10:33N 49°30' W 123°59'0 0.0
2014-Jul-18 09:33N 49°30' W 123°59'0 0.0
2014-Jul-18 08:27N 49°30' W 123°59'0 0.0
2014-Jul-18 07:33N 49°30' W 123°59'0 0.0
2014-Jul-18 06:33N 49°30' W 123°59'0 0.0
2014-Jul-18 05:33N 49°30' W 123°59'6 6.4
2014-Jul-18 04:33N 49°27' W 123°50'1110.6
2014-Jul-18 03:33N 49°23' W 123°35'1010.4
2014-Jul-18 02:33N 49°20' W 123°20'6 6.1
2014-Jul-18 01:33N 49°20' W 123°11'2 1.6
2014-Jul-18 00:33N 49°20' W 123°13'4 3.7
2014-Jul-17 23:33N 49°19' W 123°08'2 2.3
2014-Jul-17 22:33N 49°18' W 123°05'0 0.4
2014-Jul-17 21:33N 49°18' W 123°06'3 2.9
2014-Jul-17 20:33N 49°18' W 123°10'2 0.1
2014-Jul-16 17:26N 49°16' W 123°08'0 0.4
2014-Jul-16 16:33N 49°16' W 123°08'0 0.0
2014-Jul-16 15:33N 49°16' W 123°08'0 0.0
2014-Jul-16 14:30N 49°16' W 123°08'0 0.0
2014-Jul-16 13:33N 49°16' W 123°08'0 0.0
2014-Jul-16 12:33N 49°16' W 123°08'0 0.0
2014-Jul-16 11:33N 49°16' W 123°08'0 0.0
2014-Jul-16 10:33N 49°16' W 123°08'0 0.0
2014-Jul-16 09:33N 49°16' W 123°08'0 0.0
2014-Jul-16 08:33N 49°16' W 123°08'0 0.0
2014-Jul-16 07:30N 49°16' W 123°08'0 0.0
2014-Jul-16 06:33N 49°16' W 123°08'1 0.9
2014-Jul-16 05:33N 49°17' W 123°09'6 5.7
2014-Jul-16 04:34N 49°20' W 123°16'3 3.0
2014-Jul-16 03:33N 49°21' W 123°20'3 2.7
2014-Jul-16 02:33N 49°20' W 123°16'5 5.4
2014-Jul-16 01:33N 49°17' W 123°09'3 3.3
2014-Jul-16 00:34N 49°19' W 123°13'1 1.3
2014-Jul-15 23:31N 49°20' W 123°15'0 0.0
2014-Jul-15 22:31N 49°20' W 123°15'0 0.0
2014-Jul-15 21:31N 49°20' W 123°15'0 0.0
2014-Jul-15 20:31N 49°20' W 123°15'0 0.0
2014-Jul-15 19:31N 49°20' W 123°15'0 0.0
2014-Jul-15 18:31N 49°20' W 123°15'0 0.0
2014-Jul-15 17:31N 49°20' W 123°15'0 0.0
2014-Jul-15 16:31N 49°20' W 123°15'0 0.0
2014-Jul-15 15:31N 49°20' W 123°15'0 0.0
2014-Jul-15 14:31N 49°20' W 123°15'  
Track history (hours):
 
Tides and Currents Weather Stations Pressure Air Temp Water Temp Dewpoint Dewpoint Depression Visibility Wind Speed Wind Dir Waves Ship Positions

Polar Bear

Last reported at 2014-Jul-25 13:33 UTC. Time now 2014-Jul-28 22:41 UTC.
Position N 50°52' W 127°50'.

Length 28 m; draft 2.3 m.

Type: Pleasure craft. MMSI: 512172000.

Date/timePositionNaut miles runAvg speedWind from/ knotsBaromVisibWave heightAir tempDewpointWater temp
2014-Jul-25 13:33N 50°52' W 127°50'9 9.4
2014-Jul-25 12:33N 50°49' W 127°36'1 1.3
2014-Jul-25 11:32N 50°49' W 127°34'0 0.0
2014-Jul-25 10:32N 50°49' W 127°34'0 0.0
2014-Jul-25 09:32N 50°49' W 127°34'0 0.0
2014-Jul-25 08:32N 50°49' W 127°34'0 0.0
2014-Jul-25 07:32N 50°49' W 127°34'0 0.0
2014-Jul-25 06:32N 50°49' W 127°34'0 0.0
2014-Jul-25 05:32N 50°49' W 127°34'0 0.0
2014-Jul-25 04:32N 50°49' W 127°34'2 1.2
2014-Jul-25 02:33N 50°48' W 127°31'4 1.9
2014-Jul-25 00:16N 50°44' W 127°29'0 0.0
2014-Jul-24 23:22N 50°44' W 127°29'0 0.2
2014-Jul-24 22:32N 50°43' W 127°29'4 4.3
2014-Jul-24 21:33N 50°45' W 127°23'9 8.5
2014-Jul-24 20:32N 50°39' W 127°12'7 7.2
2014-Jul-24 19:33N 50°37' W 127°02'7 7.1
2014-Jul-24 18:32N 50°34' W 126°52'59 3.2
2014-Jul-24 00:23N 50°16' W 125°24'  
2014-Jul-21 05:09N 49°60' W 125°12'6 9.5
2014-Jul-21 04:32N 49°55' W 125°06'12 9.9
2014-Jul-21 03:19N 49°46' W 124°54'7 7.9
2014-Jul-21 02:27N 49°39' W 124°53'2 0.4
2014-Jul-20 20:31N 49°40' W 124°56'0 0.0
2014-Jul-20 19:19N 49°40' W 124°56'0 0.0
2014-Jul-20 18:19N 49°40' W 124°56'2 1.0
2014-Jul-20 16:33N 49°39' W 124°54'3 0.3
2014-Jul-20 04:25N 49°36' W 124°50'4 0.4
2014-Jul-19 18:30N 49°32' W 124°50'8 8.6
2014-Jul-19 17:32N 49°29' W 124°39'3 0.5
2014-Jul-19 12:04N 49°31' W 124°38'0 0.0
2014-Jul-19 09:16N 49°31' W 124°38'0 0.0
2014-Jul-19 08:28N 49°31' W 124°38'0 0.0
2014-Jul-19 02:10N 49°31' W 124°38'0 0.0
2014-Jul-19 01:10N 49°31' W 124°38'2 2.7
2014-Jul-19 00:33N 49°31' W 124°35'9 8.6
2014-Jul-18 23:33N 49°31' W 124°22'9 8.8
2014-Jul-18 22:33N 49°29' W 124°10'7 6.9
2014-Jul-18 21:33N 49°30' W 123°59'0 0.2
2014-Jul-18 20:33N 49°30' W 123°59'0 0.0
2014-Jul-18 19:33N 49°30' W 123°59'0 0.0
2014-Jul-18 18:15N 49°30' W 123°59'0 0.0
2014-Jul-18 17:33N 49°30' W 123°59'0 0.0
2014-Jul-18 16:27N 49°30' W 123°59'0 0.0
2014-Jul-18 15:33N 49°30' W 123°59'0 0.0
2014-Jul-18 14:33N 49°30' W 123°59'0 0.0
2014-Jul-18 13:33N 49°30' W 123°59'0 0.0
2014-Jul-18 12:33N 49°30' W 123°59'0 0.0
2014-Jul-18 11:33N 49°30' W 123°59'0 0.0
2014-Jul-18 10:33N 49°30' W 123°59'0 0.0
2014-Jul-18 09:33N 49°30' W 123°59'0 0.0
2014-Jul-18 08:27N 49°30' W 123°59'0 0.0
2014-Jul-18 07:33N 49°30' W 123°59'0 0.0
2014-Jul-18 06:33N 49°30' W 123°59'0 0.0
2014-Jul-18 05:33N 49°30' W 123°59'6 6.4
2014-Jul-18 04:33N 49°27' W 123°50'1110.6
2014-Jul-18 03:33N 49°23' W 123°35'1010.4
2014-Jul-18 02:33N 49°20' W 123°20'6 6.1
2014-Jul-18 01:33N 49°20' W 123°11'2 1.6
2014-Jul-18 00:33N 49°20' W 123°13'4 3.7
2014-Jul-17 23:33N 49°19' W 123°08'2 2.3
2014-Jul-17 22:33N 49°18' W 123°05'0 0.4
2014-Jul-17 21:33N 49°18' W 123°06'3 2.9
2014-Jul-17 20:33N 49°18' W 123°10'2 0.1
2014-Jul-16 17:26N 49°16' W 123°08'0 0.4
2014-Jul-16 16:33N 49°16' W 123°08'0 0.0
2014-Jul-16 15:33N 49°16' W 123°08'0 0.0
2014-Jul-16 14:30N 49°16' W 123°08'0 0.0
2014-Jul-16 13:33N 49°16' W 123°08'0 0.0
2014-Jul-16 12:33N 49°16' W 123°08'0 0.0
2014-Jul-16 11:33N 49°16' W 123°08'0 0.0
2014-Jul-16 10:33N 49°16' W 123°08'0 0.0
2014-Jul-16 09:33N 49°16' W 123°08'0 0.0
2014-Jul-16 08:33N 49°16' W 123°08'0 0.0
2014-Jul-16 07:30N 49°16' W 123°08'0 0.0
2014-Jul-16 06:33N 49°16' W 123°08'1 0.9
2014-Jul-16 05:33N 49°17' W 123°09'6 5.7
2014-Jul-16 04:34N 49°20' W 123°16'3 3.0
2014-Jul-16 03:33N 49°21' W 123°20'3 2.7
2014-Jul-16 02:33N 49°20' W 123°16'5 5.4
2014-Jul-16 01:33N 49°17' W 123°09'3 3.3
2014-Jul-16 00:34N 49°19' W 123°13'1 1.3
2014-Jul-15 23:31N 49°20' W 123°15'0 0.0
2014-Jul-15 22:31N 49°20' W 123°15'0 0.0
2014-Jul-15 21:31N 49°20' W 123°15'0 0.0
2014-Jul-15 20:31N 49°20' W 123°15'0 0.0
2014-Jul-15 19:31N 49°20' W 123°15'0 0.0
2014-Jul-15 18:31N 49°20' W 123°15'0 0.0
2014-Jul-15 17:31N 49°20' W 123°15'0 0.0
2014-Jul-15 16:31N 49°20' W 123°15'0 0.0
2014-Jul-15 15:31N 49°20' W 123°15'0 0.0
2014-Jul-15 14:31N 49°20' W 123°15'  

Dump ship's entire track history